sensor_id;sensor_type;location;lat;lon;timestamp;P1;durP1;ratioP1;P2;durP2;ratioP2
4074;SDS011;2052;53.522;9.806;2024-03-23T00:56:08;15.73;;;3.90;;
4074;SDS011;2052;53.522;9.806;2024-03-23T00:58:34;17.30;;;4.30;;
4074;SDS011;2052;53.522;9.806;2024-03-23T01:01:00;16.37;;;4.10;;
4074;SDS011;2052;53.522;9.806;2024-03-23T01:03:28;12.47;;;3.67;;
4074;SDS011;2052;53.522;9.806;2024-03-23T01:05:54;32.00;;;6.53;;
4074;SDS011;2052;53.522;9.806;2024-03-23T01:08:20;20.17;;;4.77;;
4074;SDS011;2052;53.522;9.806;2024-03-23T01:10:53;18.93;;;4.60;;
4074;SDS011;2052;53.522;9.806;2024-03-23T01:13:24;12.30;;;4.67;;
4074;SDS011;2052;53.522;9.806;2024-03-23T01:15:50;18.13;;;5.20;;
4074;SDS011;2052;53.522;9.806;2024-03-23T01:18:16;35.27;;;4.77;;
4074;SDS011;2052;53.522;9.806;2024-03-23T01:20:42;17.30;;;4.50;;
4074;SDS011;2052;53.522;9.806;2024-03-23T01:23:10;23.13;;;4.20;;
4074;SDS011;2052;53.522;9.806;2024-03-23T01:25:35;9.07;;;4.00;;
4074;SDS011;2052;53.522;9.806;2024-03-23T01:28:02;17.43;;;3.97;;
4074;SDS011;2052;53.522;9.806;2024-03-23T01:30:29;15.97;;;3.93;;
4074;SDS011;2052;53.522;9.806;2024-03-23T01:32:56;20.43;;;5.23;;
4074;SDS011;2052;53.522;9.806;2024-03-23T01:35:21;17.70;;;4.73;;
4074;SDS011;2052;53.522;9.806;2024-03-23T01:37:48;21.60;;;5.23;;
4074;SDS011;2052;53.522;9.806;2024-03-23T01:40:13;15.60;;;6.20;;
4074;SDS011;2052;53.522;9.806;2024-03-23T01:42:40;16.70;;;4.10;;
4074;SDS011;2052;53.522;9.806;2024-03-23T01:45:06;17.07;;;3.93;;
4074;SDS011;2052;53.522;9.806;2024-03-23T01:47:36;19.23;;;4.30;;
4074;SDS011;2052;53.522;9.806;2024-03-23T01:50:01;20.47;;;4.03;;
4074;SDS011;2052;53.522;9.806;2024-03-23T01:52:28;10.00;;;3.60;;
4074;SDS011;2052;53.522;9.806;2024-03-23T01:54:53;16.90;;;3.90;;
4074;SDS011;2052;53.522;9.806;2024-03-23T01:57:20;12.40;;;4.00;;
4074;SDS011;2052;53.522;9.806;2024-03-23T01:59:45;12.40;;;3.70;;
4074;SDS011;2052;53.522;9.806;2024-03-23T02:02:12;13.97;;;4.27;;
4074;SDS011;2052;53.522;9.806;2024-03-23T02:04:39;10.57;;;3.47;;
4074;SDS011;2052;53.522;9.806;2024-03-23T02:07:06;13.80;;;3.73;;
4074;SDS011;2052;53.522;9.806;2024-03-23T02:09:33;23.37;;;4.80;;
4074;SDS011;2052;53.522;9.806;2024-03-23T02:12:01;16.23;;;4.07;;
4074;SDS011;2052;53.522;9.806;2024-03-23T02:14:27;8.90;;;3.90;;
4074;SDS011;2052;53.522;9.806;2024-03-23T02:16:54;31.23;;;6.67;;
4074;SDS011;2052;53.522;9.806;2024-03-23T02:19:19;9.50;;;4.97;;
4074;SDS011;2052;53.522;9.806;2024-03-23T02:21:47;12.80;;;4.57;;
4074;SDS011;2052;53.522;9.806;2024-03-23T02:24:14;18.07;;;4.70;;
4074;SDS011;2052;53.522;9.806;2024-03-23T02:26:41;11.40;;;4.33;;
4074;SDS011;2052;53.522;9.806;2024-03-23T02:29:07;12.50;;;4.50;;
4074;SDS011;2052;53.522;9.806;2024-03-23T02:31:34;32.50;;;5.07;;
4074;SDS011;2052;53.522;9.806;2024-03-23T02:34:00;24.93;;;5.00;;
4074;SDS011;2052;53.522;9.806;2024-03-23T02:36:28;32.57;;;5.17;;
4074;SDS011;2052;53.522;9.806;2024-03-23T02:38:55;29.57;;;5.70;;
4074;SDS011;2052;53.522;9.806;2024-03-23T02:41:23;30.47;;;4.90;;
4074;SDS011;2052;53.522;9.806;2024-03-23T02:43:48;19.70;;;3.70;;
4074;SDS011;2052;53.522;9.806;2024-03-23T02:46:15;10.83;;;3.77;;
4074;SDS011;2052;53.522;9.806;2024-03-23T02:48:41;23.30;;;4.57;;
4074;SDS011;2052;53.522;9.806;2024-03-23T02:51:07;12.50;;;5.50;;
4074;SDS011;2052;53.522;9.806;2024-03-23T02:53:33;24.97;;;5.37;;
4074;SDS011;2052;53.522;9.806;2024-03-23T02:56:01;21.40;;;5.30;;
4074;SDS011;2052;53.522;9.806;2024-03-23T02:58:28;21.50;;;5.03;;
4074;SDS011;2052;53.522;9.806;2024-03-23T03:00:54;15.80;;;4.60;;
4074;SDS011;2052;53.522;9.806;2024-03-23T03:03:20;13.10;;;4.07;;
4074;SDS011;2052;53.522;9.806;2024-03-23T03:05:47;24.20;;;3.83;;
4074;SDS011;2052;53.522;9.806;2024-03-23T03:08:12;19.60;;;5.50;;
4074;SDS011;2052;53.522;9.806;2024-03-23T03:10:39;24.73;;;6.33;;
4074;SDS011;2052;53.522;9.806;2024-03-23T03:13:04;16.10;;;5.03;;
4074;SDS011;2052;53.522;9.806;2024-03-23T03:15:32;13.20;;;4.27;;
4074;SDS011;2052;53.522;9.806;2024-03-23T03:17:58;22.97;;;4.63;;
4074;SDS011;2052;53.522;9.806;2024-03-23T03:20:24;11.27;;;3.70;;
4074;SDS011;2052;53.522;9.806;2024-03-23T03:22:50;15.73;;;3.87;;
4074;SDS011;2052;53.522;9.806;2024-03-23T03:25:18;16.77;;;4.00;;
4074;SDS011;2052;53.522;9.806;2024-03-23T03:27:44;21.57;;;5.87;;
4074;SDS011;2052;53.522;9.806;2024-03-23T03:30:11;12.67;;;4.40;;
4074;SDS011;2052;53.522;9.806;2024-03-23T03:32:38;12.73;;;3.73;;
4074;SDS011;2052;53.522;9.806;2024-03-23T03:35:04;19.93;;;4.70;;
4074;SDS011;2052;53.522;9.806;2024-03-23T03:37:30;18.73;;;3.90;;
4074;SDS011;2052;53.522;9.806;2024-03-23T03:39:57;13.77;;;5.37;;
4074;SDS011;2052;53.522;9.806;2024-03-23T03:42:22;19.73;;;4.40;;
4074;SDS011;2052;53.522;9.806;2024-03-23T03:44:49;18.87;;;4.97;;
4074;SDS011;2052;53.522;9.806;2024-03-23T03:47:14;19.50;;;4.70;;
4074;SDS011;2052;53.522;9.806;2024-03-23T03:49:42;14.93;;;3.90;;
4074;SDS011;2052;53.522;9.806;2024-03-23T03:52:08;22.10;;;5.67;;
4074;SDS011;2052;53.522;9.806;2024-03-23T03:54:34;20.30;;;4.53;;
4074;SDS011;2052;53.522;9.806;2024-03-23T03:57:00;14.40;;;4.73;;
4074;SDS011;2052;53.522;9.806;2024-03-23T03:59:27;18.60;;;5.57;;
4074;SDS011;2052;53.522;9.806;2024-03-23T04:01:52;22.87;;;4.00;;
4074;SDS011;2052;53.522;9.806;2024-03-23T04:04:18;14.50;;;4.83;;
4074;SDS011;2052;53.522;9.806;2024-03-23T04:06:46;24.47;;;4.80;;
4074;SDS011;2052;53.522;9.806;2024-03-23T04:09:13;15.87;;;4.53;;
4074;SDS011;2052;53.522;9.806;2024-03-23T04:11:40;26.27;;;4.57;;
4074;SDS011;2052;53.522;9.806;2024-03-23T04:14:06;12.20;;;4.20;;
4074;SDS011;2052;53.522;9.806;2024-03-23T04:16:33;10.40;;;3.67;;
4074;SDS011;2052;53.522;9.806;2024-03-23T04:19:00;20.50;;;4.73;;
4074;SDS011;2052;53.522;9.806;2024-03-23T04:21:26;14.53;;;4.10;;
4074;SDS011;2052;53.522;9.806;2024-03-23T04:23:54;15.20;;;4.40;;
4074;SDS011;2052;53.522;9.806;2024-03-23T04:26:19;11.27;;;4.40;;
4074;SDS011;2052;53.522;9.806;2024-03-23T04:28:46;12.43;;;6.53;;
4074;SDS011;2052;53.522;9.806;2024-03-23T04:31:11;14.10;;;4.23;;
4074;SDS011;2052;53.522;9.806;2024-03-23T04:33:38;19.33;;;5.50;;
4074;SDS011;2052;53.522;9.806;2024-03-23T04:36:04;11.07;;;4.30;;
4074;SDS011;2052;53.522;9.806;2024-03-23T04:38:32;12.13;;;3.70;;
4074;SDS011;2052;53.522;9.806;2024-03-23T04:41:00;17.50;;;4.90;;
4074;SDS011;2052;53.522;9.806;2024-03-23T04:43:27;16.40;;;4.23;;
4074;SDS011;2052;53.522;9.806;2024-03-23T04:45:53;16.00;;;3.80;;
4074;SDS011;2052;53.522;9.806;2024-03-23T04:48:20;12.57;;;3.20;;
4074;SDS011;2052;53.522;9.806;2024-03-23T04:50:47;15.03;;;4.00;;
4074;SDS011;2052;53.522;9.806;2024-03-23T04:53:13;29.30;;;5.03;;
4074;SDS011;2052;53.522;9.806;2024-03-23T04:55:39;10.80;;;4.90;;
4074;SDS011;2052;53.522;9.806;2024-03-23T04:58:07;16.53;;;3.90;;
4074;SDS011;2052;53.522;9.806;2024-03-23T05:00:32;19.80;;;4.77;;
4074;SDS011;2052;53.522;9.806;2024-03-23T05:02:59;17.47;;;4.70;;
4074;SDS011;2052;53.522;9.806;2024-03-23T05:05:25;20.40;;;4.33;;
4074;SDS011;2052;53.522;9.806;2024-03-23T05:07:51;23.37;;;5.30;;
4074;SDS011;2052;53.522;9.806;2024-03-23T05:10:17;17.63;;;4.80;;
4074;SDS011;2052;53.522;9.806;2024-03-23T05:12:44;12.90;;;3.57;;
4074;SDS011;2052;53.522;9.806;2024-03-23T05:15:12;14.10;;;4.07;;
4074;SDS011;2052;53.522;9.806;2024-03-23T05:17:38;12.20;;;3.60;;
4074;SDS011;2052;53.522;9.806;2024-03-23T05:20:04;17.77;;;3.60;;
4074;SDS011;2052;53.522;9.806;2024-03-23T05:22:34;17.63;;;4.70;;
4074;SDS011;2052;53.522;9.806;2024-03-23T05:25:01;10.83;;;3.70;;
4074;SDS011;2052;53.522;9.806;2024-03-23T05:27:29;18.63;;;4.23;;
4074;SDS011;2052;53.522;9.806;2024-03-23T05:29:55;19.43;;;3.90;;
4074;SDS011;2052;53.522;9.806;2024-03-23T05:32:22;19.20;;;4.37;;
4074;SDS011;2052;53.522;9.806;2024-03-23T05:34:50;13.10;;;3.17;;
4074;SDS011;2052;53.522;9.806;2024-03-23T05:37:20;16.93;;;3.70;;
4074;SDS011;2052;53.522;9.806;2024-03-23T05:39:47;16.70;;;4.47;;
4074;SDS011;2052;53.522;9.806;2024-03-23T05:42:14;26.30;;;5.23;;
4074;SDS011;2052;53.522;9.806;2024-03-23T05:44:42;9.20;;;3.20;;
4074;SDS011;2052;53.522;9.806;2024-03-23T05:47:08;13.20;;;3.57;;
4074;SDS011;2052;53.522;9.806;2024-03-23T05:49:36;11.03;;;5.10;;
4074;SDS011;2052;53.522;9.806;2024-03-23T05:52:02;18.37;;;4.93;;
4074;SDS011;2052;53.522;9.806;2024-03-23T05:54:29;25.50;;;4.80;;
4074;SDS011;2052;53.522;9.806;2024-03-23T05:56:55;16.43;;;4.13;;
4074;SDS011;2052;53.522;9.806;2024-03-23T05:59:22;17.30;;;4.20;;
4074;SDS011;2052;53.522;9.806;2024-03-23T06:01:49;20.30;;;4.20;;
4074;SDS011;2052;53.522;9.806;2024-03-23T06:04:14;14.63;;;4.73;;
4074;SDS011;2052;53.522;9.806;2024-03-23T06:06:42;15.03;;;4.10;;
4074;SDS011;2052;53.522;9.806;2024-03-23T06:09:07;14.77;;;3.70;;
4074;SDS011;2052;53.522;9.806;2024-03-23T06:11:34;16.60;;;4.10;;
4074;SDS011;2052;53.522;9.806;2024-03-23T06:13:59;14.77;;;3.70;;
4074;SDS011;2052;53.522;9.806;2024-03-23T06:16:26;8.73;;;3.27;;
4074;SDS011;2052;53.522;9.806;2024-03-23T06:18:53;18.13;;;4.37;;
4074;SDS011;2052;53.522;9.806;2024-03-23T06:21:19;20.80;;;4.33;;
4074;SDS011;2052;53.522;9.806;2024-03-23T06:23:46;20.10;;;4.37;;
4074;SDS011;2052;53.522;9.806;2024-03-23T06:26:16;10.83;;;3.90;;
4074;SDS011;2052;53.522;9.806;2024-03-23T06:28:41;19.13;;;4.87;;
4074;SDS011;2052;53.522;9.806;2024-03-23T06:31:08;19.23;;;4.73;;
4074;SDS011;2052;53.522;9.806;2024-03-23T06:33:34;13.27;;;4.20;;
4074;SDS011;2052;53.522;9.806;2024-03-23T06:36:00;9.90;;;3.90;;
4074;SDS011;2052;53.522;9.806;2024-03-23T06:38:27;16.13;;;4.23;;
4074;SDS011;2052;53.522;9.806;2024-03-23T06:40:55;15.40;;;4.10;;
4074;SDS011;2052;53.522;9.806;2024-03-23T06:43:20;15.10;;;4.47;;
4074;SDS011;2052;53.522;9.806;2024-03-23T06:45:52;15.63;;;3.70;;
4074;SDS011;2052;53.522;9.806;2024-03-23T06:48:17;15.80;;;4.30;;
4074;SDS011;2052;53.522;9.806;2024-03-23T06:50:44;16.53;;;3.87;;
4074;SDS011;2052;53.522;9.806;2024-03-23T06:53:11;14.90;;;4.60;;
4074;SDS011;2052;53.522;9.806;2024-03-23T06:55:37;16.33;;;4.13;;
4074;SDS011;2052;53.522;9.806;2024-03-23T06:58:04;25.80;;;5.60;;
4074;SDS011;2052;53.522;9.806;2024-03-23T07:00:32;14.30;;;3.93;;
4074;SDS011;2052;53.522;9.806;2024-03-23T07:02:58;12.00;;;4.23;;
4074;SDS011;2052;53.522;9.806;2024-03-23T07:05:25;17.93;;;3.97;;
4074;SDS011;2052;53.522;9.806;2024-03-23T07:07:51;24.70;;;3.50;;
4074;SDS011;2052;53.522;9.806;2024-03-23T07:10:17;11.10;;;3.70;;
4074;SDS011;2052;53.522;9.806;2024-03-23T07:12:44;21.83;;;3.83;;
4074;SDS011;2052;53.522;9.806;2024-03-23T07:15:13;11.23;;;3.37;;
4074;SDS011;2052;53.522;9.806;2024-03-23T07:17:38;13.60;;;3.73;;
4074;SDS011;2052;53.522;9.806;2024-03-23T07:20:05;12.87;;;4.50;;
4074;SDS011;2052;53.522;9.806;2024-03-23T07:22:35;11.93;;;3.60;;
4074;SDS011;2052;53.522;9.806;2024-03-23T07:25:01;11.30;;;4.10;;
4074;SDS011;2052;53.522;9.806;2024-03-23T07:27:27;18.63;;;5.80;;
4074;SDS011;2052;53.522;9.806;2024-03-23T07:29:54;19.67;;;4.90;;
4074;SDS011;2052;53.522;9.806;2024-03-23T07:32:21;18.20;;;5.90;;
4074;SDS011;2052;53.522;9.806;2024-03-23T07:34:48;12.07;;;3.00;;
4074;SDS011;2052;53.522;9.806;2024-03-23T07:37:13;12.13;;;3.50;;
4074;SDS011;2052;53.522;9.806;2024-03-23T07:39:40;12.50;;;4.00;;
4074;SDS011;2052;53.522;9.806;2024-03-23T07:42:06;19.23;;;5.40;;
4074;SDS011;2052;53.522;9.806;2024-03-23T07:44:32;16.30;;;3.20;;
4074;SDS011;2052;53.522;9.806;2024-03-23T07:46:58;13.07;;;3.57;;
4074;SDS011;2052;53.522;9.806;2024-03-23T07:49:26;12.83;;;3.27;;
4074;SDS011;2052;53.522;9.806;2024-03-23T07:51:51;11.13;;;4.33;;
4074;SDS011;2052;53.522;9.806;2024-03-23T07:54:18;10.27;;;3.33;;
4074;SDS011;2052;53.522;9.806;2024-03-23T07:56:44;13.10;;;2.53;;
4074;SDS011;2052;53.522;9.806;2024-03-23T07:59:10;7.03;;;2.27;;
4074;SDS011;2052;53.522;9.806;2024-03-23T08:01:37;15.80;;;3.10;;
4074;SDS011;2052;53.522;9.806;2024-03-23T08:04:05;11.30;;;2.93;;
4074;SDS011;2052;53.522;9.806;2024-03-23T08:06:35;14.13;;;3.30;;
4074;SDS011;2052;53.522;9.806;2024-03-23T08:09:01;9.77;;;3.17;;
4074;SDS011;2052;53.522;9.806;2024-03-23T08:11:27;8.10;;;4.37;;
4074;SDS011;2052;53.522;9.806;2024-03-23T08:13:55;13.50;;;3.80;;
4074;SDS011;2052;53.522;9.806;2024-03-23T08:16:21;18.30;;;3.00;;
4074;SDS011;2052;53.522;9.806;2024-03-23T08:18:50;13.80;;;3.07;;
4074;SDS011;2052;53.522;9.806;2024-03-23T08:21:16;9.10;;;2.43;;
4074;SDS011;2052;53.522;9.806;2024-03-23T08:23:44;13.03;;;3.37;;
4074;SDS011;2052;53.522;9.806;2024-03-23T08:26:10;11.57;;;2.93;;
4074;SDS011;2052;53.522;9.806;2024-03-23T08:28:37;6.93;;;4.13;;
4074;SDS011;2052;53.522;9.806;2024-03-23T08:31:04;11.73;;;3.77;;
4074;SDS011;2052;53.522;9.806;2024-03-23T08:33:31;14.83;;;2.70;;
4074;SDS011;2052;53.522;9.806;2024-03-23T08:35:57;11.93;;;2.53;;
4074;SDS011;2052;53.522;9.806;2024-03-23T08:38:24;13.40;;;3.47;;
4074;SDS011;2052;53.522;9.806;2024-03-23T08:40:57;17.63;;;4.20;;
4074;SDS011;2052;53.522;9.806;2024-03-23T08:43:24;11.10;;;3.97;;
4074;SDS011;2052;53.522;9.806;2024-03-23T08:45:49;10.80;;;5.30;;
4074;SDS011;2052;53.522;9.806;2024-03-23T08:48:17;15.47;;;3.93;;
4074;SDS011;2052;53.522;9.806;2024-03-23T08:50:45;14.10;;;3.53;;
4074;SDS011;2052;53.522;9.806;2024-03-23T08:53:11;16.57;;;3.27;;
4074;SDS011;2052;53.522;9.806;2024-03-23T08:55:36;17.53;;;4.17;;
4074;SDS011;2052;53.522;9.806;2024-03-23T08:58:04;10.27;;;3.10;;
4074;SDS011;2052;53.522;9.806;2024-03-23T09:00:33;14.00;;;4.50;;
4074;SDS011;2052;53.522;9.806;2024-03-23T09:03:01;12.33;;;2.90;;
4074;SDS011;2052;53.522;9.806;2024-03-23T09:05:28;16.33;;;3.57;;
4074;SDS011;2052;53.522;9.806;2024-03-23T09:08:00;13.87;;;3.83;;
4074;SDS011;2052;53.522;9.806;2024-03-23T09:10:26;12.80;;;3.60;;
4074;SDS011;2052;53.522;9.806;2024-03-23T09:12:52;6.60;;;3.00;;
4074;SDS011;2052;53.522;9.806;2024-03-23T09:15:19;17.60;;;4.50;;
4074;SDS011;2052;53.522;9.806;2024-03-23T09:17:45;10.03;;;2.70;;
4074;SDS011;2052;53.522;9.806;2024-03-23T09:20:11;15.80;;;5.40;;
4074;SDS011;2052;53.522;9.806;2024-03-23T09:22:37;13.57;;;4.33;;
4074;SDS011;2052;53.522;9.806;2024-03-23T09:25:03;10.60;;;2.80;;
4074;SDS011;2052;53.522;9.806;2024-03-23T09:27:30;14.13;;;2.83;;
4074;SDS011;2052;53.522;9.806;2024-03-23T09:29:57;13.73;;;2.60;;
4074;SDS011;2052;53.522;9.806;2024-03-23T09:32:24;19.93;;;4.20;;
4074;SDS011;2052;53.522;9.806;2024-03-23T09:34:50;17.83;;;3.73;;
4074;SDS011;2052;53.522;9.806;2024-03-23T09:37:16;9.53;;;2.90;;
4074;SDS011;2052;53.522;9.806;2024-03-23T09:39:44;24.07;;;2.70;;
4074;SDS011;2052;53.522;9.806;2024-03-23T09:42:10;5.87;;;2.23;;
4074;SDS011;2052;53.522;9.806;2024-03-23T09:44:38;12.07;;;2.30;;
4074;SDS011;2052;53.522;9.806;2024-03-23T09:47:04;11.60;;;2.97;;
4074;SDS011;2052;53.522;9.806;2024-03-23T09:49:34;12.03;;;3.13;;
4074;SDS011;2052;53.522;9.806;2024-03-23T09:52:01;8.03;;;3.03;;
4074;SDS011;2052;53.522;9.806;2024-03-23T09:54:29;14.20;;;2.87;;
4074;SDS011;2052;53.522;9.806;2024-03-23T09:56:57;8.53;;;2.70;;
4074;SDS011;2052;53.522;9.806;2024-03-23T09:59:24;9.33;;;2.63;;
4074;SDS011;2052;53.522;9.806;2024-03-23T10:01:51;14.13;;;2.93;;
4074;SDS011;2052;53.522;9.806;2024-03-23T10:07:13;10.50;;;3.33;;
4074;SDS011;2052;53.522;9.806;2024-03-23T10:09:40;8.27;;;2.60;;
4074;SDS011;2052;53.522;9.806;2024-03-23T10:12:09;7.10;;;2.33;;
4074;SDS011;2052;53.522;9.806;2024-03-23T10:14:37;6.20;;;2.47;;
4074;SDS011;2052;53.522;9.806;2024-03-23T10:17:13;8.10;;;2.80;;
4074;SDS011;2052;53.522;9.806;2024-03-23T10:19:44;9.70;;;3.00;;
4074;SDS011;2052;53.522;9.806;2024-03-23T10:22:13;8.77;;;2.10;;
4074;SDS011;2052;53.522;9.806;2024-03-23T10:24:40;12.73;;;2.17;;
4074;SDS011;2052;53.522;9.806;2024-03-23T10:27:06;6.43;;;2.37;;
4074;SDS011;2052;53.522;9.806;2024-03-23T10:29:32;4.07;;;1.70;;
4074;SDS011;2052;53.522;9.806;2024-03-23T10:32:07;5.10;;;2.00;;
4074;SDS011;2052;53.522;9.806;2024-03-23T10:34:34;5.23;;;2.00;;
4074;SDS011;2052;53.522;9.806;2024-03-23T10:37:05;7.83;;;2.70;;
4074;SDS011;2052;53.522;9.806;2024-03-23T10:39:33;5.43;;;1.83;;
4074;SDS011;2052;53.522;9.806;2024-03-23T10:42:00;4.77;;;1.80;;
4074;SDS011;2052;53.522;9.806;2024-03-23T10:44:28;6.80;;;1.90;;
4074;SDS011;2052;53.522;9.806;2024-03-23T10:46:55;3.87;;;2.10;;
4074;SDS011;2052;53.522;9.806;2024-03-23T10:49:26;10.10;;;2.20;;
4074;SDS011;2052;53.522;9.806;2024-03-23T10:51:54;10.17;;;2.37;;
4074;SDS011;2052;53.522;9.806;2024-03-23T10:54:22;8.10;;;2.40;;
4074;SDS011;2052;53.522;9.806;2024-03-23T10:56:49;9.53;;;2.70;;
4074;SDS011;2052;53.522;9.806;2024-03-23T10:59:21;6.57;;;2.40;;
4074;SDS011;2052;53.522;9.806;2024-03-23T11:01:56;11.93;;;6.80;;
4074;SDS011;2052;53.522;9.806;2024-03-23T11:04:29;8.47;;;1.30;;
4074;SDS011;2052;53.522;9.806;2024-03-23T11:06:55;9.70;;;5.93;;
4074;SDS011;2052;53.522;9.806;2024-03-23T11:12:25;8.60;;;3.00;;
4074;SDS011;2052;53.522;9.806;2024-03-23T11:15:02;8.57;;;5.83;;
4074;SDS011;2052;53.522;9.806;2024-03-23T11:17:29;10.03;;;3.87;;
4074;SDS011;2052;53.522;9.806;2024-03-23T11:19:57;20.13;;;9.83;;
4074;SDS011;2052;53.522;9.806;2024-03-23T11:22:38;10.53;;;3.97;;
4074;SDS011;2052;53.522;9.806;2024-03-23T11:25:17;22.57;;;5.57;;
4074;SDS011;2052;53.522;9.806;2024-03-23T11:27:45;4.70;;;2.33;;
4074;SDS011;2052;53.522;9.806;2024-03-23T11:30:16;7.23;;;2.00;;
4074;SDS011;2052;53.522;9.806;2024-03-23T11:32:43;9.20;;;2.77;;
4074;SDS011;2052;53.522;9.806;2024-03-23T11:35:10;8.40;;;2.17;;
4074;SDS011;2052;53.522;9.806;2024-03-23T11:37:38;8.03;;;2.70;;
4074;SDS011;2052;53.522;9.806;2024-03-23T11:40:18;6.67;;;2.53;;
4074;SDS011;2052;53.522;9.806;2024-03-23T11:42:44;7.80;;;2.60;;
4074;SDS011;2052;53.522;9.806;2024-03-23T11:45:12;14.13;;;2.43;;
4074;SDS011;2052;53.522;9.806;2024-03-23T11:47:39;4.67;;;1.90;;
4074;SDS011;2052;53.522;9.806;2024-03-23T11:50:08;5.20;;;1.90;;
4074;SDS011;2052;53.522;9.806;2024-03-23T11:52:34;5.03;;;2.00;;
4074;SDS011;2052;53.522;9.806;2024-03-23T11:55:03;5.27;;;2.07;;
4074;SDS011;2052;53.522;9.806;2024-03-23T11:57:31;7.67;;;1.97;;
4074;SDS011;2052;53.522;9.806;2024-03-23T11:59:57;4.53;;;2.10;;
4074;SDS011;2052;53.522;9.806;2024-03-23T12:02:24;7.63;;;1.57;;
4074;SDS011;2052;53.522;9.806;2024-03-23T12:04:51;4.43;;;1.53;;
4074;SDS011;2052;53.522;9.806;2024-03-23T12:07:18;4.50;;;1.50;;
4074;SDS011;2052;53.522;9.806;2024-03-23T12:09:47;3.20;;;1.50;;
4074;SDS011;2052;53.522;9.806;2024-03-23T12:12:14;2.53;;;1.43;;
4074;SDS011;2052;53.522;9.806;2024-03-23T12:14:43;5.30;;;1.80;;
4074;SDS011;2052;53.522;9.806;2024-03-23T12:17:10;8.00;;;2.07;;
4074;SDS011;2052;53.522;9.806;2024-03-23T12:19:38;5.80;;;1.60;;
4074;SDS011;2052;53.522;9.806;2024-03-23T12:22:04;3.57;;;1.53;;
4074;SDS011;2052;53.522;9.806;2024-03-23T12:24:31;6.13;;;1.40;;
4074;SDS011;2052;53.522;9.806;2024-03-23T12:27:00;3.80;;;1.87;;
4074;SDS011;2052;53.522;9.806;2024-03-23T12:29:28;3.00;;;1.43;;
4074;SDS011;2052;53.522;9.806;2024-03-23T12:31:55;1.80;;;0.90;;
4074;SDS011;2052;53.522;9.806;2024-03-23T12:34:22;2.80;;;1.00;;
4074;SDS011;2052;53.522;9.806;2024-03-23T12:36:48;4.33;;;1.23;;
4074;SDS011;2052;53.522;9.806;2024-03-23T12:39:14;2.00;;;1.10;;
4074;SDS011;2052;53.522;9.806;2024-03-23T12:41:41;2.33;;;1.20;;
4074;SDS011;2052;53.522;9.806;2024-03-23T12:44:06;3.27;;;1.23;;
4074;SDS011;2052;53.522;9.806;2024-03-23T12:46:38;1.27;;;0.87;;
4074;SDS011;2052;53.522;9.806;2024-03-23T12:49:05;6.20;;;1.30;;
4074;SDS011;2052;53.522;9.806;2024-03-23T12:51:31;1.30;;;1.10;;
4074;SDS011;2052;53.522;9.806;2024-03-23T12:53:57;5.00;;;1.20;;
4074;SDS011;2052;53.522;9.806;2024-03-23T12:56:24;9.53;;;1.83;;
4074;SDS011;2052;53.522;9.806;2024-03-23T12:58:50;2.60;;;1.60;;
4074;SDS011;2052;53.522;9.806;2024-03-23T13:01:18;9.70;;;2.10;;
4074;SDS011;2052;53.522;9.806;2024-03-23T13:03:45;4.23;;;1.87;;
4074;SDS011;2052;53.522;9.806;2024-03-23T13:06:13;3.20;;;1.33;;
4074;SDS011;2052;53.522;9.806;2024-03-23T13:08:39;1.30;;;1.20;;
4074;SDS011;2052;53.522;9.806;2024-03-23T13:11:06;8.13;;;1.77;;
4074;SDS011;2052;53.522;9.806;2024-03-23T13:13:33;5.90;;;2.37;;
4074;SDS011;2052;53.522;9.806;2024-03-23T13:16:00;1.40;;;1.30;;
4074;SDS011;2052;53.522;9.806;2024-03-23T13:18:25;2.50;;;1.60;;
4074;SDS011;2052;53.522;9.806;2024-03-23T13:20:52;5.23;;;2.20;;
4074;SDS011;2052;53.522;9.806;2024-03-23T13:23:19;1.87;;;1.77;;
4074;SDS011;2052;53.522;9.806;2024-03-23T13:25:49;3.20;;;1.60;;
4074;SDS011;2052;53.522;9.806;2024-03-23T13:28:15;3.03;;;1.97;;
4074;SDS011;2052;53.522;9.806;2024-03-23T13:30:49;3.50;;;1.77;;
4074;SDS011;2052;53.522;9.806;2024-03-23T13:33:15;4.57;;;1.30;;
4074;SDS011;2052;53.522;9.806;2024-03-23T13:35:48;2.87;;;1.30;;
4074;SDS011;2052;53.522;9.806;2024-03-23T13:38:14;3.30;;;1.33;;
4074;SDS011;2052;53.522;9.806;2024-03-23T13:40:54;0.90;;;0.80;;
4074;SDS011;2052;53.522;9.806;2024-03-23T13:43:21;2.90;;;1.20;;
4074;SDS011;2052;53.522;9.806;2024-03-23T13:45:48;1.10;;;1.10;;
4074;SDS011;2052;53.522;9.806;2024-03-23T13:48:15;1.77;;;1.20;;
4074;SDS011;2052;53.522;9.806;2024-03-23T13:50:42;2.30;;;1.13;;
4074;SDS011;2052;53.522;9.806;2024-03-23T13:53:07;2.00;;;1.00;;
4074;SDS011;2052;53.522;9.806;2024-03-23T13:55:34;1.23;;;1.00;;
4074;SDS011;2052;53.522;9.806;2024-03-23T13:58:01;1.53;;;1.00;;
4074;SDS011;2052;53.522;9.806;2024-03-23T14:00:30;1.60;;;1.07;;
4074;SDS011;2052;53.522;9.806;2024-03-23T14:03:04;1.33;;;1.03;;
4074;SDS011;2052;53.522;9.806;2024-03-23T14:05:30;4.30;;;1.03;;
4074;SDS011;2052;53.522;9.806;2024-03-23T14:07:56;2.67;;;1.17;;
4074;SDS011;2052;53.522;9.806;2024-03-23T14:10:23;3.47;;;1.30;;
4074;SDS011;2052;53.522;9.806;2024-03-23T14:12:48;2.67;;;1.37;;
4074;SDS011;2052;53.522;9.806;2024-03-23T14:15:16;6.97;;;1.30;;
4074;SDS011;2052;53.522;9.806;2024-03-23T14:17:43;3.83;;;1.50;;
4074;SDS011;2052;53.522;9.806;2024-03-23T14:20:10;4.00;;;1.30;;
4074;SDS011;2052;53.522;9.806;2024-03-23T14:22:36;4.20;;;1.37;;
4074;SDS011;2052;53.522;9.806;2024-03-23T14:25:06;5.83;;;1.87;;
4074;SDS011;2052;53.522;9.806;2024-03-23T14:27:32;6.00;;;1.53;;
4074;SDS011;2052;53.522;9.806;2024-03-23T14:30:02;6.13;;;1.83;;
4074;SDS011;2052;53.522;9.806;2024-03-23T14:32:30;10.93;;;2.90;;
4074;SDS011;2052;53.522;9.806;2024-03-23T14:34:59;3.13;;;1.87;;
4074;SDS011;2052;53.522;9.806;2024-03-23T14:37:24;3.80;;;1.53;;
4074;SDS011;2052;53.522;9.806;2024-03-23T14:39:51;2.57;;;1.30;;
4074;SDS011;2052;53.522;9.806;2024-03-23T14:42:17;2.60;;;1.80;;
4074;SDS011;2052;53.522;9.806;2024-03-23T14:44:44;5.13;;;1.73;;
4074;SDS011;2052;53.522;9.806;2024-03-23T14:47:09;4.43;;;1.20;;
4074;SDS011;2052;53.522;9.806;2024-03-23T14:49:38;1.83;;;1.10;;
4074;SDS011;2052;53.522;9.806;2024-03-23T14:52:03;3.37;;;1.33;;
4074;SDS011;2052;53.522;9.806;2024-03-23T14:54:30;1.80;;;1.47;;
4074;SDS011;2052;53.522;9.806;2024-03-23T14:56:55;1.53;;;1.20;;
4074;SDS011;2052;53.522;9.806;2024-03-23T14:59:23;2.40;;;1.27;;
4074;SDS011;2052;53.522;9.806;2024-03-23T15:01:49;1.20;;;1.10;;
4074;SDS011;2052;53.522;9.806;2024-03-23T15:04:16;1.00;;;0.90;;
4074;SDS011;2052;53.522;9.806;2024-03-23T15:06:43;2.93;;;1.10;;
4074;SDS011;2052;53.522;9.806;2024-03-23T15:09:11;1.43;;;1.10;;
4074;SDS011;2052;53.522;9.806;2024-03-23T15:11:37;3.03;;;1.00;;
4074;SDS011;2052;53.522;9.806;2024-03-23T15:14:03;1.73;;;1.30;;
4074;SDS011;2052;53.522;9.806;2024-03-23T15:16:32;1.23;;;1.10;;
4074;SDS011;2052;53.522;9.806;2024-03-23T15:18:58;2.10;;;1.17;;
4074;SDS011;2052;53.522;9.806;2024-03-23T15:21:24;8.97;;;2.20;;
4074;SDS011;2052;53.522;9.806;2024-03-23T15:23:52;3.90;;;2.00;;
4074;SDS011;2052;53.522;9.806;2024-03-23T15:26:17;1.50;;;1.40;;
4074;SDS011;2052;53.522;9.806;2024-03-23T15:28:47;3.90;;;1.63;;
4074;SDS011;2052;53.522;9.806;2024-03-23T15:31:29;2.87;;;1.20;;
4074;SDS011;2052;53.522;9.806;2024-03-23T15:33:56;4.53;;;1.43;;
4074;SDS011;2052;53.522;9.806;2024-03-23T15:36:21;1.93;;;1.30;;
4074;SDS011;2052;53.522;9.806;2024-03-23T15:38:48;3.17;;;1.80;;
4074;SDS011;2052;53.522;9.806;2024-03-23T15:41:15;2.93;;;1.40;;
4074;SDS011;2052;53.522;9.806;2024-03-23T15:43:42;3.87;;;1.60;;
4074;SDS011;2052;53.522;9.806;2024-03-23T15:46:08;4.57;;;1.50;;
4074;SDS011;2052;53.522;9.806;2024-03-23T15:48:35;4.20;;;1.63;;
4074;SDS011;2052;53.522;9.806;2024-03-23T15:51:01;6.43;;;2.17;;
4074;SDS011;2052;53.522;9.806;2024-03-23T15:53:30;7.90;;;2.17;;
4074;SDS011;2052;53.522;9.806;2024-03-23T15:55:56;3.87;;;2.50;;
4074;SDS011;2052;53.522;9.806;2024-03-23T15:58:24;11.33;;;2.00;;
4074;SDS011;2052;53.522;9.806;2024-03-23T16:00:57;10.03;;;2.30;;
4074;SDS011;2052;53.522;9.806;2024-03-23T16:03:23;4.33;;;1.63;;
4074;SDS011;2052;53.522;9.806;2024-03-23T16:05:50;7.67;;;3.20;;
4074;SDS011;2052;53.522;9.806;2024-03-23T16:08:17;9.00;;;1.80;;